»·PEaware :: N380SP KSBA-KBUR

N380SP :: KSBA-KBUR

FLIGHT INFORMATION

Flight Status: Arrived
Operator: Privately registered:
United States
More flights under this callsign
Pilot: Kevin S. (26378)
Aircraft: CESSNA 172 SKYHAWK
(C172)
More flights by this aircraft type
Origin: KSBA Santa Barbara Mun
United States
Destination: KBUR Bob Hope-Burbank
United States
More flights between these airports :: More routes between these airports
Route: +KSBA HENER FIM KBUR
File this flight plan on PilotEdge
Remarks:
Altitude:
(Current/Filed)
9,500ft
Speed:
(Current/Filed)
100kts
Departed: 08-Oct-19 07:46 PM
Arrived: 08-Oct-19 08:40 PM
Distance/Time
Traveled:
74nm/0:54
Distance/Time
To Go:
Arrived

Flight Plot

Page will automatically refresh every two minutes.

Flight plan parsing failed; only flown route is shown


Map Options




Map Legend


Flown Route
Filed Route
Departure Airport
Arrival Airport
Navaid (VOR, NDB)
Fix

Horizontal Profiles

Position Reports

Time Latitude Longitude Heading Altitude Ground
Speed
08-Oct-19 19:34 34.432569 -119.835085 71 14ft 0kts
08-Oct-19 19:35 34.432569 -119.835085 71 14ft 0kts
08-Oct-19 19:36 34.432569 -119.835085 71 14ft 0kts
08-Oct-19 19:37 34.432569 -119.835085 71 14ft 0kts
08-Oct-19 19:38 34.432569 -119.835085 71 14ft 0kts
08-Oct-19 19:39 34.432079 -119.835318 222 14ft 0kts
08-Oct-19 19:40 34.428971 -119.834982 93 10ft 12kts
08-Oct-19 19:41 34.428758 -119.834648 181 10ft 0kts
08-Oct-19 19:42 34.428758 -119.834648 181 10ft 0kts
08-Oct-19 19:43 34.428758 -119.834648 181 10ft 0kts
08-Oct-19 19:44 34.428061 -119.834886 239 10ft 4kts
08-Oct-19 19:45 34.427567 -119.854693 266 700ft 74kts
08-Oct-19 19:46 34.425599 -119.881545 265 1445ft 89kts
08-Oct-19 19:47 34.421670 -119.913846 265 1397ft 97kts
08-Oct-19 19:48 34.418267 -119.946025 262 1338ft 98kts
08-Oct-19 19:49 34.405732 -119.947731 75 1876ft 109kts
08-Oct-19 19:50 34.410538 -119.916307 93 2908ft 104kts
08-Oct-19 19:51 34.409746 -119.882778 89 3823ft 103kts
08-Oct-19 19:52 34.409233 -119.848173 89 4633ft 105kts
08-Oct-19 19:53 34.407552 -119.812807 92 5473ft 97kts
08-Oct-19 19:54 34.404762 -119.779304 92 6189ft 101kts
08-Oct-19 19:55 34.400465 -119.745209 91 6896ft 104kts
08-Oct-19 19:56 34.399207 -119.709515 91 7587ft 107kts
08-Oct-19 19:57 34.394631 -119.673594 91 8255ft 109kts
08-Oct-19 19:58 34.395183 -119.636785 92 8884ft 110kts
08-Oct-19 19:59 34.392682 -119.599151 94 9289ft 117kts
08-Oct-19 20:00 34.385923 -119.560988 108 9361ft 115kts
08-Oct-19 20:01 34.376830 -119.523808 97 9339ft 118kts
08-Oct-19 20:02 34.375129 -119.484454 87 9340ft 117kts
08-Oct-19 20:03 34.370840 -119.445136 98 9346ft 117kts
08-Oct-19 20:04 34.357182 -119.410165 135 9354ft 115kts
08-Oct-19 20:05 34.343587 -119.377711 79 9165ft 110kts
08-Oct-19 20:06 34.340700 -119.348917 107 8460ft 118kts
08-Oct-19 20:07 34.334242 -119.332678 111 8041ft 119kts
08-Oct-19 20:08 34.325820 -119.295894 117 7018ft 112kts
08-Oct-19 20:09 34.315961 -119.265603 112 6098ft 112kts
08-Oct-19 20:10 34.321595 -119.231939 67 5303ft 98kts
08-Oct-19 20:11 34.329776 -119.198156 82 5394ft 105kts
08-Oct-19 20:12 34.329236 -119.162794 92 5428ft 105kts
08-Oct-19 20:13 34.332208 -119.127790 72 5448ft 104kts
08-Oct-19 20:14 34.338351 -119.093187 76 5467ft 105kts
08-Oct-19 20:15 34.345615 -119.059070 72 5493ft 108kts
08-Oct-19 20:16 34.353486 -119.018386 74 5426ft 125kts
08-Oct-19 20:17 34.358600 -118.976117 84 5383ft 126kts
08-Oct-19 20:18 34.364264 -118.934115 65 5335ft 126kts
08-Oct-19 20:19 34.374035 -118.893774 102 5266ft 131kts
08-Oct-19 20:20 34.360262 -118.854912 113 5434ft 121kts
08-Oct-19 20:21 34.348208 -118.816042 113 5548ft 122kts
08-Oct-19 20:22 34.334572 -118.778047 113 5557ft 123kts
08-Oct-19 20:23 34.319957 -118.740686 121 5574ft 124kts
08-Oct-19 20:24 34.306025 -118.702896 111 5612ft 123kts
08-Oct-19 20:25 34.290602 -118.666803 132 5507ft 118kts
08-Oct-19 20:26 34.274131 -118.632396 131 5425ft 116kts
08-Oct-19 20:27 34.246944 -118.622792 186 5444ft 104kts
08-Oct-19 20:28 34.218861 -118.628814 200 5400ft 101kts
08-Oct-19 20:29 34.192099 -118.628453 138 5362ft 111kts
08-Oct-19 20:30 34.187197 -118.591260 95 5424ft 116kts
08-Oct-19 20:31 34.180157 -118.554867 112 4941ft 112kts
08-Oct-19 20:32 34.168517 -118.521383 119 4839ft 110kts
08-Oct-19 20:33 34.158412 -118.487739 110 4663ft 106kts
08-Oct-19 20:34 34.151781 -118.453538 97 4022ft 105kts
08-Oct-19 20:35 34.157713 -118.423158 69 2644ft 108kts
08-Oct-19 20:36 34.151952 -118.402832 55 2260ft 108kts
08-Oct-19 20:37 34.173870 -118.382416 358 2199ft 119kts
08-Oct-19 20:38 34.198437 -118.373300 83 937ft 89kts
08-Oct-19 20:39 34.198636 -118.360210 7 717ft 0kts
08-Oct-19 20:40 34.199787 -118.363856 358 725ft 21kts

Navigation Log

Ident Type
Flight plan parsing failed, navigation log unavailable